sensor_id;sensor_type;location;lat;lon;timestamp;P1;durP1;ratioP1;P2;durP2;ratioP2
84966;SDS011;75275;51.348;12.358;2024-01-27T00:00:50;6.70;;;1.25;;
84966;SDS011;75275;51.348;12.358;2024-01-27T00:03:17;4.95;;;1.00;;
84966;SDS011;75275;51.348;12.358;2024-01-27T00:05:44;5.18;;;1.10;;
84966;SDS011;75275;51.348;12.358;2024-01-27T00:08:10;5.63;;;1.23;;
84966;SDS011;75275;51.348;12.358;2024-01-27T00:10:37;6.00;;;2.50;;
84966;SDS011;75275;51.348;12.358;2024-01-27T00:13:04;4.93;;;1.10;;
84966;SDS011;75275;51.348;12.358;2024-01-27T00:18:00;6.00;;;1.40;;
84966;SDS011;75275;51.348;12.358;2024-01-27T00:20:27;6.07;;;2.72;;
84966;SDS011;75275;51.348;12.358;2024-01-27T00:22:57;5.38;;;1.25;;
84966;SDS011;75275;51.348;12.358;2024-01-27T00:25:23;2.72;;;1.05;;
84966;SDS011;75275;51.348;12.358;2024-01-27T00:27:50;7.00;;;1.67;;
84966;SDS011;75275;51.348;12.358;2024-01-27T00:30:17;6.55;;;2.25;;
84966;SDS011;75275;51.348;12.358;2024-01-27T00:35:12;3.72;;;1.05;;
84966;SDS011;75275;51.348;12.358;2024-01-27T00:37:39;3.80;;;1.27;;
84966;SDS011;75275;51.348;12.358;2024-01-27T00:42:34;5.50;;;1.33;;
84966;SDS011;75275;51.348;12.358;2024-01-27T00:45:01;4.65;;;1.23;;
84966;SDS011;75275;51.348;12.358;2024-01-27T00:47:28;7.88;;;1.52;;
84966;SDS011;75275;51.348;12.358;2024-01-27T00:52:23;5.03;;;1.38;;
84966;SDS011;75275;51.348;12.358;2024-01-27T00:54:50;4.55;;;1.17;;
84966;SDS011;75275;51.348;12.358;2024-01-27T00:57:17;8.55;;;1.50;;
84966;SDS011;75275;51.348;12.358;2024-01-27T00:59:44;5.32;;;1.55;;
84966;SDS011;75275;51.348;12.358;2024-01-27T01:04:38;5.65;;;1.75;;
84966;SDS011;75275;51.348;12.358;2024-01-27T01:07:06;7.25;;;2.33;;
84966;SDS011;75275;51.348;12.358;2024-01-27T01:09:34;8.88;;;1.48;;
84966;SDS011;75275;51.348;12.358;2024-01-27T01:12:01;6.35;;;1.67;;
84966;SDS011;75275;51.348;12.358;2024-01-27T01:14:29;4.47;;;1.08;;
84966;SDS011;75275;51.348;12.358;2024-01-27T01:16:56;6.30;;;1.40;;
84966;SDS011;75275;51.348;12.358;2024-01-27T01:21:51;6.68;;;1.40;;
84966;SDS011;75275;51.348;12.358;2024-01-27T01:24:19;6.65;;;2.42;;
84966;SDS011;75275;51.348;12.358;2024-01-27T01:26:50;8.13;;;2.40;;
84966;SDS011;75275;51.348;12.358;2024-01-27T01:29:17;8.25;;;1.55;;
84966;SDS011;75275;51.348;12.358;2024-01-27T01:31:59;9.02;;;1.90;;
84966;SDS011;75275;51.348;12.358;2024-01-27T01:34:27;8.52;;;1.88;;
84966;SDS011;75275;51.348;12.358;2024-01-27T01:36:54;7.65;;;2.20;;
84966;SDS011;75275;51.348;12.358;2024-01-27T01:39:22;14.13;;;2.10;;
84966;SDS011;75275;51.348;12.358;2024-01-27T01:41:50;9.93;;;2.42;;
84966;SDS011;75275;51.348;12.358;2024-01-27T01:44:17;12.40;;;1.83;;
84966;SDS011;75275;51.348;12.358;2024-01-27T01:46:44;6.75;;;1.70;;
84966;SDS011;75275;51.348;12.358;2024-01-27T01:49:12;6.90;;;1.60;;
84966;SDS011;75275;51.348;12.358;2024-01-27T01:54:05;9.13;;;1.45;;
84966;SDS011;75275;51.348;12.358;2024-01-27T01:56:33;5.57;;;1.50;;
84966;SDS011;75275;51.348;12.358;2024-01-27T01:59:03;12.60;;;1.55;;
84966;SDS011;75275;51.348;12.358;2024-01-27T02:01:30;7.70;;;2.15;;
84966;SDS011;75275;51.348;12.358;2024-01-27T02:03:57;8.32;;;1.73;;
84966;SDS011;75275;51.348;12.358;2024-01-27T02:06:24;8.50;;;1.58;;
84966;SDS011;75275;51.348;12.358;2024-01-27T02:08:51;11.75;;;1.70;;
84966;SDS011;75275;51.348;12.358;2024-01-27T02:11:17;4.97;;;1.60;;
84966;SDS011;75275;51.348;12.358;2024-01-27T02:13:44;7.13;;;2.15;;
84966;SDS011;75275;51.348;12.358;2024-01-27T02:16:12;6.53;;;1.58;;
84966;SDS011;75275;51.348;12.358;2024-01-27T02:18:39;11.50;;;1.75;;
84966;SDS011;75275;51.348;12.358;2024-01-27T02:21:06;8.88;;;2.53;;
84966;SDS011;75275;51.348;12.358;2024-01-27T02:23:33;8.07;;;2.00;;
84966;SDS011;75275;51.348;12.358;2024-01-27T02:26:01;7.82;;;1.98;;
84966;SDS011;75275;51.348;12.358;2024-01-27T02:28:28;7.47;;;1.83;;
84966;SDS011;75275;51.348;12.358;2024-01-27T02:30:57;7.80;;;1.83;;
84966;SDS011;75275;51.348;12.358;2024-01-27T02:33:24;10.70;;;2.85;;
84966;SDS011;75275;51.348;12.358;2024-01-27T02:35:54;8.65;;;1.80;;
84966;SDS011;75275;51.348;12.358;2024-01-27T02:38:21;7.07;;;1.67;;
84966;SDS011;75275;51.348;12.358;2024-01-27T02:40:48;8.30;;;1.88;;
84966;SDS011;75275;51.348;12.358;2024-01-27T02:43:17;12.98;;;1.90;;
84966;SDS011;75275;51.348;12.358;2024-01-27T02:45:49;9.55;;;2.35;;
84966;SDS011;75275;51.348;12.358;2024-01-27T02:48:16;8.30;;;1.48;;
84966;SDS011;75275;51.348;12.358;2024-01-27T02:50:45;11.55;;;1.85;;
84966;SDS011;75275;51.348;12.358;2024-01-27T02:53:11;7.03;;;1.63;;
84966;SDS011;75275;51.348;12.358;2024-01-27T02:55:38;9.75;;;1.75;;
84966;SDS011;75275;51.348;12.358;2024-01-27T02:58:05;8.35;;;2.33;;
84966;SDS011;75275;51.348;12.358;2024-01-27T03:00:33;10.65;;;2.42;;
84966;SDS011;75275;51.348;12.358;2024-01-27T03:03:00;7.05;;;2.00;;
84966;SDS011;75275;51.348;12.358;2024-01-27T03:05:27;8.65;;;2.30;;
84966;SDS011;75275;51.348;12.358;2024-01-27T03:07:57;5.45;;;1.63;;
84966;SDS011;75275;51.348;12.358;2024-01-27T03:10:24;10.65;;;1.70;;
84966;SDS011;75275;51.348;12.358;2024-01-27T03:12:51;10.63;;;2.05;;
84966;SDS011;75275;51.348;12.358;2024-01-27T03:17:48;6.28;;;1.73;;
84966;SDS011;75275;51.348;12.358;2024-01-27T03:20:14;6.82;;;1.88;;
84966;SDS011;75275;51.348;12.358;2024-01-27T03:22:41;9.32;;;1.90;;
84966;SDS011;75275;51.348;12.358;2024-01-27T03:25:13;9.30;;;1.63;;
84966;SDS011;75275;51.348;12.358;2024-01-27T03:27:44;5.07;;;1.50;;
84966;SDS011;75275;51.348;12.358;2024-01-27T03:30:11;7.00;;;2.20;;
84966;SDS011;75275;51.348;12.358;2024-01-27T03:32:38;11.27;;;2.03;;
84966;SDS011;75275;51.348;12.358;2024-01-27T03:35:07;8.00;;;1.60;;
84966;SDS011;75275;51.348;12.358;2024-01-27T03:37:34;6.03;;;1.67;;
84966;SDS011;75275;51.348;12.358;2024-01-27T03:42:28;6.97;;;1.50;;
84966;SDS011;75275;51.348;12.358;2024-01-27T03:44:55;9.25;;;2.08;;
84966;SDS011;75275;51.348;12.358;2024-01-27T03:47:21;8.13;;;1.77;;
84966;SDS011;75275;51.348;12.358;2024-01-27T03:54:58;6.68;;;1.45;;
84966;SDS011;75275;51.348;12.358;2024-01-27T03:57:25;8.93;;;1.25;;
84966;SDS011;75275;51.348;12.358;2024-01-27T03:59:52;8.15;;;1.73;;
84966;SDS011;75275;51.348;12.358;2024-01-27T04:02:21;7.70;;;2.20;;
84966;SDS011;75275;51.348;12.358;2024-01-27T04:04:48;8.32;;;1.35;;
84966;SDS011;75275;51.348;12.358;2024-01-27T04:07:15;10.60;;;1.67;;
84966;SDS011;75275;51.348;12.358;2024-01-27T04:09:43;6.45;;;1.30;;
84966;SDS011;75275;51.348;12.358;2024-01-27T04:12:10;8.38;;;2.03;;
84966;SDS011;75275;51.348;12.358;2024-01-27T04:14:38;11.40;;;2.47;;
84966;SDS011;75275;51.348;12.358;2024-01-27T04:17:05;8.23;;;1.60;;
84966;SDS011;75275;51.348;12.358;2024-01-27T04:19:32;6.85;;;1.48;;
84966;SDS011;75275;51.348;12.358;2024-01-27T04:24:26;7.75;;;1.90;;
84966;SDS011;75275;51.348;12.358;2024-01-27T04:29:21;11.13;;;2.00;;
84966;SDS011;75275;51.348;12.358;2024-01-27T04:31:48;6.63;;;1.80;;
84966;SDS011;75275;51.348;12.358;2024-01-27T04:34:16;6.82;;;2.30;;
84966;SDS011;75275;51.348;12.358;2024-01-27T04:36:44;8.60;;;1.58;;
84966;SDS011;75275;51.348;12.358;2024-01-27T04:41:41;10.82;;;2.22;;
84966;SDS011;75275;51.348;12.358;2024-01-27T04:44:10;10.05;;;2.50;;
84966;SDS011;75275;51.348;12.358;2024-01-27T04:46:37;10.73;;;1.83;;
84966;SDS011;75275;51.348;12.358;2024-01-27T04:49:04;6.50;;;1.73;;
84966;SDS011;75275;51.348;12.358;2024-01-27T04:51:34;8.50;;;1.90;;
84966;SDS011;75275;51.348;12.358;2024-01-27T04:54:05;7.05;;;1.88;;
84966;SDS011;75275;51.348;12.358;2024-01-27T04:56:32;7.40;;;2.00;;
84966;SDS011;75275;51.348;12.358;2024-01-27T04:58:59;9.50;;;1.92;;
84966;SDS011;75275;51.348;12.358;2024-01-27T05:01:28;6.70;;;2.25;;
84966;SDS011;75275;51.348;12.358;2024-01-27T05:03:55;9.02;;;1.75;;
84966;SDS011;75275;51.348;12.358;2024-01-27T05:06:22;11.23;;;1.98;;
84966;SDS011;75275;51.348;12.358;2024-01-27T05:08:52;11.75;;;1.65;;
84966;SDS011;75275;51.348;12.358;2024-01-27T05:13:51;6.20;;;2.03;;
84966;SDS011;75275;51.348;12.358;2024-01-27T05:16:20;6.10;;;1.98;;
84966;SDS011;75275;51.348;12.358;2024-01-27T05:18:48;9.25;;;1.65;;
84966;SDS011;75275;51.348;12.358;2024-01-27T05:21:15;12.52;;;1.85;;
84966;SDS011;75275;51.348;12.358;2024-01-27T05:23:42;7.50;;;1.77;;
84966;SDS011;75275;51.348;12.358;2024-01-27T05:26:09;9.27;;;1.85;;
84966;SDS011;75275;51.348;12.358;2024-01-27T05:31:03;5.97;;;1.95;;
84966;SDS011;75275;51.348;12.358;2024-01-27T05:33:32;10.63;;;2.47;;
84966;SDS011;75275;51.348;12.358;2024-01-27T05:38:27;17.35;;;2.45;;
84966;SDS011;75275;51.348;12.358;2024-01-27T05:40:56;10.77;;;2.20;;
84966;SDS011;75275;51.348;12.358;2024-01-27T05:43:27;11.82;;;2.03;;
84966;SDS011;75275;51.348;12.358;2024-01-27T05:45:54;9.13;;;2.60;;
84966;SDS011;75275;51.348;12.358;2024-01-27T05:48:21;9.10;;;2.83;;
84966;SDS011;75275;51.348;12.358;2024-01-27T05:50:54;8.07;;;1.85;;
84966;SDS011;75275;51.348;12.358;2024-01-27T05:53:25;11.27;;;2.80;;
84966;SDS011;75275;51.348;12.358;2024-01-27T05:55:53;8.02;;;1.95;;
84966;SDS011;75275;51.348;12.358;2024-01-27T05:58:20;9.65;;;2.35;;
84966;SDS011;75275;51.348;12.358;2024-01-27T06:00:47;8.50;;;1.85;;
84966;SDS011;75275;51.348;12.358;2024-01-27T06:03:14;11.95;;;2.10;;
84966;SDS011;75275;51.348;12.358;2024-01-27T06:05:42;7.15;;;1.75;;
84966;SDS011;75275;51.348;12.358;2024-01-27T06:08:09;12.18;;;2.55;;
84966;SDS011;75275;51.348;12.358;2024-01-27T06:10:37;7.43;;;1.83;;
84966;SDS011;75275;51.348;12.358;2024-01-27T06:13:04;12.90;;;2.40;;
84966;SDS011;75275;51.348;12.358;2024-01-27T06:15:31;9.07;;;2.17;;
84966;SDS011;75275;51.348;12.358;2024-01-27T06:17:58;9.90;;;2.00;;
84966;SDS011;75275;51.348;12.358;2024-01-27T06:20:25;8.10;;;1.95;;
84966;SDS011;75275;51.348;12.358;2024-01-27T06:22:52;7.85;;;2.58;;
84966;SDS011;75275;51.348;12.358;2024-01-27T06:25:19;14.32;;;2.67;;
84966;SDS011;75275;51.348;12.358;2024-01-27T06:27:48;10.52;;;2.55;;
84966;SDS011;75275;51.348;12.358;2024-01-27T06:30:15;7.18;;;2.22;;
84966;SDS011;75275;51.348;12.358;2024-01-27T06:32:43;10.55;;;2.45;;
84966;SDS011;75275;51.348;12.358;2024-01-27T06:35:11;9.73;;;2.50;;
84966;SDS011;75275;51.348;12.358;2024-01-27T06:37:41;8.85;;;2.20;;
84966;SDS011;75275;51.348;12.358;2024-01-27T06:40:09;8.50;;;2.00;;
84966;SDS011;75275;51.348;12.358;2024-01-27T06:42:36;11.50;;;1.98;;
84966;SDS011;75275;51.348;12.358;2024-01-27T06:45:06;9.60;;;2.42;;
84966;SDS011;75275;51.348;12.358;2024-01-27T06:47:33;12.10;;;2.30;;
84966;SDS011;75275;51.348;12.358;2024-01-27T06:50:00;9.32;;;2.00;;
84966;SDS011;75275;51.348;12.358;2024-01-27T06:52:28;8.55;;;1.92;;
84966;SDS011;75275;51.348;12.358;2024-01-27T06:57:22;13.13;;;2.50;;
84966;SDS011;75275;51.348;12.358;2024-01-27T06:59:50;10.82;;;2.80;;
84966;SDS011;75275;51.348;12.358;2024-01-27T07:02:20;9.13;;;2.35;;
84966;SDS011;75275;51.348;12.358;2024-01-27T07:04:49;10.43;;;2.03;;
84966;SDS011;75275;51.348;12.358;2024-01-27T07:09:42;12.63;;;2.08;;
84966;SDS011;75275;51.348;12.358;2024-01-27T07:12:12;8.23;;;2.30;;
84966;SDS011;75275;51.348;12.358;2024-01-27T07:14:38;7.93;;;2.28;;
84966;SDS011;75275;51.348;12.358;2024-01-27T07:17:08;6.85;;;1.98;;
84966;SDS011;75275;51.348;12.358;2024-01-27T07:19:37;10.60;;;2.75;;
84966;SDS011;75275;51.348;12.358;2024-01-27T07:22:04;12.65;;;2.42;;
84966;SDS011;75275;51.348;12.358;2024-01-27T07:24:32;8.57;;;3.58;;
84966;SDS011;75275;51.348;12.358;2024-01-27T07:26:59;11.32;;;2.30;;
84966;SDS011;75275;51.348;12.358;2024-01-27T07:29:33;8.10;;;2.20;;
84966;SDS011;75275;51.348;12.358;2024-01-27T07:31:59;9.45;;;2.00;;
84966;SDS011;75275;51.348;12.358;2024-01-27T07:34:26;9.15;;;2.58;;
84966;SDS011;75275;51.348;12.358;2024-01-27T07:36:54;7.60;;;2.13;;
84966;SDS011;75275;51.348;12.358;2024-01-27T07:39:21;12.23;;;2.20;;
84966;SDS011;75275;51.348;12.358;2024-01-27T07:41:48;12.85;;;2.53;;
84966;SDS011;75275;51.348;12.358;2024-01-27T07:44:17;8.93;;;1.80;;
84966;SDS011;75275;51.348;12.358;2024-01-27T07:46:44;10.07;;;1.88;;
84966;SDS011;75275;51.348;12.358;2024-01-27T07:49:12;11.80;;;2.85;;
84966;SDS011;75275;51.348;12.358;2024-01-27T07:51:40;7.57;;;1.92;;
84966;SDS011;75275;51.348;12.358;2024-01-27T07:54:08;15.48;;;3.03;;
84966;SDS011;75275;51.348;12.358;2024-01-27T07:56:35;13.63;;;2.38;;
84966;SDS011;75275;51.348;12.358;2024-01-27T07:59:03;10.18;;;2.30;;
84966;SDS011;75275;51.348;12.358;2024-01-27T08:01:30;12.23;;;2.60;;
84966;SDS011;75275;51.348;12.358;2024-01-27T08:04:00;8.43;;;2.38;;
84966;SDS011;75275;51.348;12.358;2024-01-27T08:06:28;10.23;;;2.40;;
84966;SDS011;75275;51.348;12.358;2024-01-27T08:08:56;13.77;;;2.60;;
84966;SDS011;75275;51.348;12.358;2024-01-27T08:11:24;8.80;;;2.53;;
84966;SDS011;75275;51.348;12.358;2024-01-27T08:13:56;10.88;;;3.83;;
84966;SDS011;75275;51.348;12.358;2024-01-27T08:16:23;10.55;;;3.15;;
84966;SDS011;75275;51.348;12.358;2024-01-27T08:18:50;10.68;;;2.20;;
84966;SDS011;75275;51.348;12.358;2024-01-27T08:21:17;8.88;;;2.10;;
84966;SDS011;75275;51.348;12.358;2024-01-27T08:23:44;8.82;;;2.30;;
84966;SDS011;75275;51.348;12.358;2024-01-27T08:26:10;8.68;;;2.78;;
84966;SDS011;75275;51.348;12.358;2024-01-27T08:28:39;10.00;;;2.50;;
84966;SDS011;75275;51.348;12.358;2024-01-27T08:31:05;9.82;;;2.75;;
84966;SDS011;75275;51.348;12.358;2024-01-27T08:33:32;13.23;;;2.67;;
84966;SDS011;75275;51.348;12.358;2024-01-27T08:38:27;13.05;;;3.28;;
84966;SDS011;75275;51.348;12.358;2024-01-27T08:40:54;13.68;;;3.20;;
84966;SDS011;75275;51.348;12.358;2024-01-27T08:43:21;11.25;;;3.38;;
84966;SDS011;75275;51.348;12.358;2024-01-27T08:48:16;11.65;;;4.13;;
84966;SDS011;75275;51.348;12.358;2024-01-27T08:53:10;12.65;;;2.35;;
84966;SDS011;75275;51.348;12.358;2024-01-27T08:55:37;10.00;;;2.92;;
84966;SDS011;75275;51.348;12.358;2024-01-27T08:58:04;12.65;;;4.05;;
84966;SDS011;75275;51.348;12.358;2024-01-27T09:00:31;11.90;;;3.05;;
84966;SDS011;75275;51.348;12.358;2024-01-27T09:03:02;11.35;;;2.85;;
84966;SDS011;75275;51.348;12.358;2024-01-27T09:05:32;16.55;;;4.28;;
84966;SDS011;75275;51.348;12.358;2024-01-27T09:07:59;12.90;;;3.67;;
84966;SDS011;75275;51.348;12.358;2024-01-27T09:10:26;10.73;;;3.60;;
84966;SDS011;75275;51.348;12.358;2024-01-27T09:12:54;8.30;;;2.72;;
84966;SDS011;75275;51.348;12.358;2024-01-27T09:15:20;13.88;;;3.95;;
84966;SDS011;75275;51.348;12.358;2024-01-27T09:17:47;8.85;;;3.25;;
84966;SDS011;75275;51.348;12.358;2024-01-27T09:20:16;12.63;;;3.00;;
84966;SDS011;75275;51.348;12.358;2024-01-27T09:22:43;8.68;;;2.40;;
84966;SDS011;75275;51.348;12.358;2024-01-27T09:25:12;11.88;;;3.17;;
84966;SDS011;75275;51.348;12.358;2024-01-27T09:27:39;9.43;;;3.28;;
84966;SDS011;75275;51.348;12.358;2024-01-27T09:32:33;11.20;;;3.42;;
84966;SDS011;75275;51.348;12.358;2024-01-27T09:37:32;13.20;;;3.88;;
84966;SDS011;75275;51.348;12.358;2024-01-27T09:39:59;8.02;;;3.17;;
84966;SDS011;75275;51.348;12.358;2024-01-27T09:42:27;9.25;;;2.60;;
84966;SDS011;75275;51.348;12.358;2024-01-27T09:44:55;17.08;;;3.67;;
84966;SDS011;75275;51.348;12.358;2024-01-27T09:47:24;15.38;;;3.05;;
84966;SDS011;75275;51.348;12.358;2024-01-27T09:49:51;13.82;;;3.25;;
84966;SDS011;75275;51.348;12.358;2024-01-27T09:52:18;9.07;;;2.72;;
84966;SDS011;75275;51.348;12.358;2024-01-27T09:54:47;16.40;;;4.15;;
84966;SDS011;75275;51.348;12.358;2024-01-27T09:57:14;11.68;;;3.67;;
84966;SDS011;75275;51.348;12.358;2024-01-27T09:59:43;11.82;;;3.35;;
84966;SDS011;75275;51.348;12.358;2024-01-27T10:02:11;10.10;;;3.00;;
84966;SDS011;75275;51.348;12.358;2024-01-27T10:04:41;11.23;;;2.95;;
84966;SDS011;75275;51.348;12.358;2024-01-27T10:07:10;14.32;;;3.60;;
84966;SDS011;75275;51.348;12.358;2024-01-27T10:09:37;10.80;;;3.55;;
84966;SDS011;75275;51.348;12.358;2024-01-27T10:12:08;12.52;;;3.10;;
84966;SDS011;75275;51.348;12.358;2024-01-27T10:14:39;13.70;;;3.58;;
84966;SDS011;75275;51.348;12.358;2024-01-27T10:17:08;15.00;;;3.78;;
84966;SDS011;75275;51.348;12.358;2024-01-27T10:19:40;14.20;;;4.00;;
84966;SDS011;75275;51.348;12.358;2024-01-27T10:22:07;11.73;;;3.72;;
84966;SDS011;75275;51.348;12.358;2024-01-27T10:24:34;14.90;;;4.25;;
84966;SDS011;75275;51.348;12.358;2024-01-27T10:27:01;12.10;;;3.70;;
84966;SDS011;75275;51.348;12.358;2024-01-27T10:29:31;14.77;;;3.55;;
84966;SDS011;75275;51.348;12.358;2024-01-27T10:32:06;15.15;;;4.35;;
84966;SDS011;75275;51.348;12.358;2024-01-27T10:34:34;15.05;;;4.07;;
84966;SDS011;75275;51.348;12.358;2024-01-27T10:39:28;11.27;;;3.90;;
84966;SDS011;75275;51.348;12.358;2024-01-27T10:44:22;7.97;;;3.40;;
84966;SDS011;75275;51.348;12.358;2024-01-27T10:46:50;11.88;;;3.70;;
84966;SDS011;75275;51.348;12.358;2024-01-27T10:49:17;14.73;;;5.15;;
84966;SDS011;75275;51.348;12.358;2024-01-27T10:51:49;11.55;;;4.88;;
84966;SDS011;75275;51.348;12.358;2024-01-27T10:54:23;15.63;;;4.93;;
84966;SDS011;75275;51.348;12.358;2024-01-27T10:56:51;12.90;;;3.45;;
84966;SDS011;75275;51.348;12.358;2024-01-27T10:59:22;11.32;;;3.92;;
84966;SDS011;75275;51.348;12.358;2024-01-27T11:01:51;11.82;;;3.38;;
84966;SDS011;75275;51.348;12.358;2024-01-27T11:04:19;10.85;;;3.28;;
84966;SDS011;75275;51.348;12.358;2024-01-27T11:06:46;14.18;;;3.70;;
84966;SDS011;75275;51.348;12.358;2024-01-27T11:09:14;15.05;;;4.20;;
84966;SDS011;75275;51.348;12.358;2024-01-27T11:11:41;12.68;;;3.80;;
84966;SDS011;75275;51.348;12.358;2024-01-27T11:14:10;14.68;;;3.60;;
84966;SDS011;75275;51.348;12.358;2024-01-27T11:16:38;10.35;;;3.22;;
84966;SDS011;75275;51.348;12.358;2024-01-27T11:19:11;12.65;;;3.65;;
84966;SDS011;75275;51.348;12.358;2024-01-27T11:21:38;15.10;;;3.63;;
84966;SDS011;75275;51.348;12.358;2024-01-27T11:24:14;12.27;;;3.58;;
84966;SDS011;75275;51.348;12.358;2024-01-27T11:26:44;14.75;;;3.63;;
84966;SDS011;75275;51.348;12.358;2024-01-27T11:29:12;12.43;;;3.97;;
84966;SDS011;75275;51.348;12.358;2024-01-27T11:31:44;11.85;;;3.60;;
84966;SDS011;75275;51.348;12.358;2024-01-27T11:34:13;13.90;;;4.05;;
84966;SDS011;75275;51.348;12.358;2024-01-27T11:36:42;10.68;;;3.85;;
84966;SDS011;75275;51.348;12.358;2024-01-27T11:39:22;11.80;;;2.80;;
84966;SDS011;75275;51.348;12.358;2024-01-27T11:41:50;8.18;;;2.90;;
84966;SDS011;75275;51.348;12.358;2024-01-27T11:44:17;10.23;;;2.67;;
84966;SDS011;75275;51.348;12.358;2024-01-27T11:46:45;12.40;;;4.00;;
84966;SDS011;75275;51.348;12.358;2024-01-27T11:49:15;12.98;;;3.28;;
84966;SDS011;75275;51.348;12.358;2024-01-27T11:51:43;11.57;;;3.10;;
84966;SDS011;75275;51.348;12.358;2024-01-27T11:54:10;11.10;;;3.72;;
84966;SDS011;75275;51.348;12.358;2024-01-27T11:56:41;9.02;;;3.33;;
84966;SDS011;75275;51.348;12.358;2024-01-27T11:59:10;9.68;;;2.65;;
84966;SDS011;75275;51.348;12.358;2024-01-27T12:04:03;10.77;;;2.70;;
84966;SDS011;75275;51.348;12.358;2024-01-27T12:06:32;11.20;;;2.65;;
84966;SDS011;75275;51.348;12.358;2024-01-27T12:08:59;8.07;;;2.38;;
84966;SDS011;75275;51.348;12.358;2024-01-27T12:11:26;8.68;;;3.03;;
84966;SDS011;75275;51.348;12.358;2024-01-27T12:13:55;8.48;;;2.97;;
84966;SDS011;75275;51.348;12.358;2024-01-27T12:16:22;8.43;;;2.75;;
84966;SDS011;75275;51.348;12.358;2024-01-27T12:21:18;6.95;;;3.45;;
84966;SDS011;75275;51.348;12.358;2024-01-27T12:23:51;10.93;;;2.80;;
84966;SDS011;75275;51.348;12.358;2024-01-27T12:26:19;9.77;;;3.33;;
84966;SDS011;75275;51.348;12.358;2024-01-27T12:28:46;11.35;;;3.53;;
84966;SDS011;75275;51.348;12.358;2024-01-27T12:31:15;12.18;;;2.63;;
84966;SDS011;75275;51.348;12.358;2024-01-27T12:33:49;11.30;;;2.85;;
84966;SDS011;75275;51.348;12.358;2024-01-27T12:36:17;10.52;;;2.88;;
84966;SDS011;75275;51.348;12.358;2024-01-27T12:38:56;11.52;;;3.03;;
84966;SDS011;75275;51.348;12.358;2024-01-27T12:41:25;12.95;;;3.40;;
84966;SDS011;75275;51.348;12.358;2024-01-27T12:43:52;9.02;;;2.78;;
84966;SDS011;75275;51.348;12.358;2024-01-27T12:48:46;12.10;;;3.13;;
84966;SDS011;75275;51.348;12.358;2024-01-27T12:51:13;11.43;;;3.00;;
84966;SDS011;75275;51.348;12.358;2024-01-27T12:53:40;10.38;;;2.58;;
84966;SDS011;75275;51.348;12.358;2024-01-27T12:56:10;9.60;;;2.40;;
84966;SDS011;75275;51.348;12.358;2024-01-27T12:58:40;9.63;;;2.25;;
84966;SDS011;75275;51.348;12.358;2024-01-27T13:01:08;8.23;;;2.50;;
84966;SDS011;75275;51.348;12.358;2024-01-27T13:03:38;7.35;;;2.50;;
84966;SDS011;75275;51.348;12.358;2024-01-27T13:06:05;9.60;;;2.53;;
84966;SDS011;75275;51.348;12.358;2024-01-27T13:08:32;10.45;;;2.70;;
84966;SDS011;75275;51.348;12.358;2024-01-27T13:10:59;11.07;;;2.53;;
84966;SDS011;75275;51.348;12.358;2024-01-27T13:15:54;11.18;;;2.60;;
84966;SDS011;75275;51.348;12.358;2024-01-27T13:18:21;12.63;;;2.55;;
84966;SDS011;75275;51.348;12.358;2024-01-27T13:20:50;11.52;;;2.88;;
84966;SDS011;75275;51.348;12.358;2024-01-27T13:25:44;10.32;;;1.90;;
84966;SDS011;75275;51.348;12.358;2024-01-27T13:28:11;14.13;;;4.00;;
84966;SDS011;75275;51.348;12.358;2024-01-27T13:30:40;7.53;;;2.33;;
84966;SDS011;75275;51.348;12.358;2024-01-27T13:33:08;9.43;;;2.40;;
84966;SDS011;75275;51.348;12.358;2024-01-27T13:35:37;7.65;;;2.17;;
84966;SDS011;75275;51.348;12.358;2024-01-27T13:38:08;9.85;;;2.75;;
84966;SDS011;75275;51.348;12.358;2024-01-27T13:40:35;13.20;;;2.45;;
84966;SDS011;75275;51.348;12.358;2024-01-27T13:43:04;7.03;;;2.97;;
84966;SDS011;75275;51.348;12.358;2024-01-27T13:45:35;10.63;;;2.22;;
84966;SDS011;75275;51.348;12.358;2024-01-27T13:50:31;10.02;;;2.10;;
84966;SDS011;75275;51.348;12.358;2024-01-27T13:53:00;9.45;;;2.10;;
84966;SDS011;75275;51.348;12.358;2024-01-27T13:55:28;8.98;;;2.22;;
84966;SDS011;75275;51.348;12.358;2024-01-27T14:00:22;11.45;;;2.92;;
84966;SDS011;75275;51.348;12.358;2024-01-27T14:05:17;7.15;;;2.10;;
84966;SDS011;75275;51.348;12.358;2024-01-27T14:07:44;8.77;;;2.50;;
84966;SDS011;75275;51.348;12.358;2024-01-27T14:12:38;6.60;;;1.90;;
84966;SDS011;75275;51.348;12.358;2024-01-27T14:17:35;6.72;;;2.17;;
84966;SDS011;75275;51.348;12.358;2024-01-27T14:20:02;5.78;;;1.50;;
84966;SDS011;75275;51.348;12.358;2024-01-27T14:22:35;5.85;;;1.88;;
84966;SDS011;75275;51.348;12.358;2024-01-27T14:25:03;9.73;;;1.98;;
84966;SDS011;75275;51.348;12.358;2024-01-27T14:27:31;10.95;;;2.40;;
84966;SDS011;75275;51.348;12.358;2024-01-27T14:29:58;8.20;;;2.42;;
84966;SDS011;75275;51.348;12.358;2024-01-27T14:34:52;7.47;;;1.75;;
84966;SDS011;75275;51.348;12.358;2024-01-27T14:37:19;6.25;;;1.80;;
84966;SDS011;75275;51.348;12.358;2024-01-27T14:42:15;8.40;;;1.73;;
84966;SDS011;75275;51.348;12.358;2024-01-27T14:44:43;9.25;;;2.28;;
84966;SDS011;75275;51.348;12.358;2024-01-27T14:47:14;10.60;;;2.33;;
84966;SDS011;75275;51.348;12.358;2024-01-27T14:49:41;11.95;;;1.95;;
84966;SDS011;75275;51.348;12.358;2024-01-27T14:52:10;7.10;;;1.83;;
84966;SDS011;75275;51.348;12.358;2024-01-27T14:54:38;10.63;;;2.08;;
84966;SDS011;75275;51.348;12.358;2024-01-27T14:57:06;6.25;;;1.80;;
84966;SDS011;75275;51.348;12.358;2024-01-27T14:59:35;13.27;;;2.20;;
84966;SDS011;75275;51.348;12.358;2024-01-27T15:02:04;6.10;;;1.95;;
84966;SDS011;75275;51.348;12.358;2024-01-27T15:04:31;8.05;;;1.80;;
84966;SDS011;75275;51.348;12.358;2024-01-27T15:06:58;7.22;;;2.15;;
84966;SDS011;75275;51.348;12.358;2024-01-27T15:09:26;6.65;;;1.77;;
84966;SDS011;75275;51.348;12.358;2024-01-27T15:11:53;6.65;;;1.70;;
84966;SDS011;75275;51.348;12.358;2024-01-27T15:16:48;7.25;;;2.38;;
84966;SDS011;75275;51.348;12.358;2024-01-27T15:19:16;8.10;;;2.30;;
84966;SDS011;75275;51.348;12.358;2024-01-27T15:24:12;7.82;;;2.33;;
84966;SDS011;75275;51.348;12.358;2024-01-27T15:26:39;10.20;;;2.38;;
84966;SDS011;75275;51.348;12.358;2024-01-27T15:31:34;6.45;;;1.90;;
84966;SDS011;75275;51.348;12.358;2024-01-27T15:34:02;7.55;;;1.70;;
84966;SDS011;75275;51.348;12.358;2024-01-27T15:36:30;8.43;;;3.03;;
84966;SDS011;75275;51.348;12.358;2024-01-27T15:41:23;5.80;;;2.50;;
84966;SDS011;75275;51.348;12.358;2024-01-27T15:46:17;7.57;;;2.22;;
84966;SDS011;75275;51.348;12.358;2024-01-27T15:51:13;6.93;;;1.73;;
84966;SDS011;75275;51.348;12.358;2024-01-27T15:53:40;11.20;;;2.42;;
84966;SDS011;75275;51.348;12.358;2024-01-27T15:56:07;8.40;;;1.88;;
84966;SDS011;75275;51.348;12.358;2024-01-27T15:58:33;15.05;;;2.80;;
84966;SDS011;75275;51.348;12.358;2024-01-27T16:01:00;9.88;;;2.78;;
84966;SDS011;75275;51.348;12.358;2024-01-27T16:03:28;11.68;;;2.65;;
84966;SDS011;75275;51.348;12.358;2024-01-27T16:05:56;8.70;;;2.40;;
84966;SDS011;75275;51.348;12.358;2024-01-27T16:08:23;7.38;;;2.47;;
84966;SDS011;75275;51.348;12.358;2024-01-27T16:10:50;14.77;;;2.70;;
84966;SDS011;75275;51.348;12.358;2024-01-27T16:13:18;7.18;;;3.20;;
84966;SDS011;75275;51.348;12.358;2024-01-27T16:15:45;10.10;;;3.50;;
84966;SDS011;75275;51.348;12.358;2024-01-27T16:18:15;10.48;;;2.70;;
84966;SDS011;75275;51.348;12.358;2024-01-27T16:20:41;12.48;;;3.05;;